createdAt,value
2023-02-09T00:01:41.587Z,5.70
2023-02-09T00:04:11.090Z,6.20
2023-02-09T00:06:41.625Z,5.50
2023-02-09T00:09:10.816Z,6.53
2023-02-09T00:11:57.924Z,6.67
2023-02-09T00:14:27.304Z,6.30
2023-02-09T00:16:55.764Z,7.10
2023-02-09T00:19:24.415Z,6.77
2023-02-09T00:21:53.361Z,7.20
2023-02-09T00:24:22.483Z,6.50
2023-02-09T00:26:53.112Z,6.43
2023-02-09T00:29:24.102Z,6.77
2023-02-09T00:31:53.583Z,6.47
2023-02-09T00:34:22.622Z,6.30
2023-02-09T00:36:51.031Z,6.47
2023-02-09T00:39:19.396Z,6.40
2023-02-09T00:42:04.897Z,7.13
2023-02-09T00:44:35.766Z,7.70
2023-02-09T00:47:05.424Z,7.33
2023-02-09T00:49:34.282Z,7.03
2023-02-09T00:52:03.225Z,7.27
2023-02-09T00:54:33.261Z,7.60
2023-02-09T00:57:05.672Z,6.50
2023-02-09T00:59:40.667Z,6.27
2023-02-09T01:02:10.068Z,7.03
2023-02-09T01:04:39.266Z,6.67
2023-02-09T01:07:07.212Z,6.50
2023-02-09T01:09:35.273Z,7.30
2023-02-09T01:12:03.282Z,7.23
2023-02-09T01:14:31.808Z,7.63
2023-02-09T01:17:01.387Z,7.60
2023-02-09T01:19:29.382Z,7.87
2023-02-09T01:21:57.492Z,7.97
2023-02-09T01:24:25.722Z,7.73
2023-02-09T01:26:53.639Z,7.83
2023-02-09T01:29:22.152Z,7.53
2023-02-09T01:31:50.270Z,7.60
2023-02-09T01:34:20.579Z,7.17
2023-02-09T01:36:49.804Z,7.93
2023-02-09T01:39:17.869Z,7.40
2023-02-09T01:41:45.888Z,7.67
2023-02-09T01:45:15.917Z,7.93
2023-02-09T01:47:47.697Z,7.60
2023-02-09T01:50:18.264Z,8.57
2023-02-09T01:52:49.055Z,8.30
2023-02-09T01:55:21.027Z,8.37
2023-02-09T01:57:52.772Z,8.77
2023-02-09T02:00:22.986Z,8.43
2023-02-09T02:02:55.772Z,7.40
2023-02-09T02:05:27.720Z,8.40
2023-02-09T02:08:01.841Z,8.10
2023-02-09T02:10:30.668Z,8.50
2023-02-09T02:12:59.279Z,8.43
2023-02-09T02:15:31.849Z,7.60
2023-02-09T02:18:21.405Z,8.57
2023-02-09T02:21:22.001Z,7.50
2023-02-09T02:24:07.000Z,8.67
2023-02-09T02:26:54.710Z,8.60
2023-02-09T02:29:52.721Z,8.27
2023-02-09T02:32:40.423Z,8.17
2023-02-09T02:35:15.576Z,8.27
2023-02-09T02:37:54.887Z,8.43
2023-02-09T02:40:34.606Z,8.77
2023-02-09T02:43:10.337Z,9.00
2023-02-09T02:45:44.536Z,9.37
2023-02-09T02:48:22.751Z,9.57
2023-02-09T02:50:54.774Z,9.03
2023-02-09T02:53:27.286Z,8.97
2023-02-09T02:55:57.775Z,8.57
2023-02-09T02:58:28.592Z,8.80
2023-02-09T03:01:00.279Z,8.70
2023-02-09T03:03:33.361Z,9.00
2023-02-09T03:06:04.494Z,8.67
2023-02-09T03:08:47.202Z,9.30
2023-02-09T03:11:15.244Z,8.47
2023-02-09T03:14:04.681Z,8.97
2023-02-09T03:16:38.823Z,9.03
2023-02-09T03:19:18.509Z,9.27
2023-02-09T03:21:52.323Z,9.53
2023-02-09T03:24:31.083Z,8.57
2023-02-09T03:27:03.576Z,9.03
2023-02-09T03:29:33.189Z,9.77
2023-02-09T03:32:01.190Z,9.57
2023-02-09T03:34:31.028Z,9.67
2023-02-09T03:36:59.273Z,9.87
2023-02-09T03:39:27.391Z,9.90
2023-02-09T03:41:55.247Z,10.00
2023-02-09T03:44:28.849Z,8.67
2023-02-09T03:46:58.990Z,9.37
2023-02-09T03:49:28.533Z,9.07
2023-02-09T03:52:00.816Z,9.43
2023-02-09T03:54:29.036Z,9.17
2023-02-09T03:56:57.689Z,9.33
2023-02-09T03:59:26.902Z,9.80
2023-02-09T04:01:56.040Z,9.80
2023-02-09T04:04:24.720Z,8.70
2023-02-09T04:06:52.983Z,9.50
2023-02-09T04:09:22.352Z,9.60
2023-02-09T04:11:50.578Z,9.00
2023-02-09T04:14:18.660Z,9.13
2023-02-09T04:16:46.982Z,9.50
2023-02-09T04:19:14.871Z,9.00
2023-02-09T04:21:42.993Z,9.13
2023-02-09T04:24:11.225Z,9.13
2023-02-09T04:26:40.770Z,9.07
2023-02-09T04:29:08.734Z,8.90
2023-02-09T04:31:36.698Z,9.63
2023-02-09T04:34:04.826Z,9.90
2023-02-09T04:36:32.909Z,9.83
2023-02-09T04:39:00.924Z,9.27
2023-02-09T04:41:28.867Z,9.20
2023-02-09T04:43:58.341Z,9.77
2023-02-09T04:46:26.371Z,8.93
2023-02-09T04:48:54.350Z,9.87
2023-02-09T04:51:22.376Z,9.33
2023-02-09T04:53:50.957Z,10.50
2023-02-09T04:56:19.221Z,9.67
2023-02-09T04:59:04.527Z,9.90
2023-02-09T05:01:34.076Z,10.20
2023-02-09T05:04:02.189Z,10.53
2023-02-09T05:06:30.395Z,9.90
2023-02-09T05:08:58.397Z,9.83
2023-02-09T05:11:26.541Z,9.97
2023-02-09T05:13:54.596Z,10.07
2023-02-09T05:16:23.756Z,10.53
2023-02-09T05:18:53.368Z,10.40
2023-02-09T05:21:21.265Z,10.63
2023-02-09T05:23:49.302Z,10.43
2023-02-09T05:26:17.464Z,10.07
2023-02-09T05:28:45.637Z,10.20
2023-02-09T05:31:13.762Z,9.97
2023-02-09T05:33:41.849Z,10.43
2023-02-09T05:36:12.966Z,11.07
2023-02-09T05:38:41.059Z,9.97
2023-02-09T05:41:10.814Z,10.50
2023-02-09T05:43:39.449Z,10.40
2023-02-09T05:46:08.580Z,11.17
2023-02-09T05:48:37.161Z,10.50
2023-02-09T05:51:05.667Z,10.93
2023-02-09T05:53:35.722Z,10.80
2023-02-09T05:56:04.145Z,10.53
2023-02-09T05:58:32.039Z,11.30
2023-02-09T06:01:00.006Z,10.60
2023-02-09T06:03:28.096Z,10.93
2023-02-09T06:05:56.050Z,10.87
2023-02-09T06:08:24.079Z,11.37
2023-02-09T06:10:53.494Z,10.70
2023-02-09T06:13:22.183Z,10.80
2023-02-09T06:15:50.078Z,10.73
2023-02-09T06:18:18.189Z,12.10
2023-02-09T06:20:46.475Z,11.40
2023-02-09T06:23:14.858Z,11.43
2023-02-09T06:25:44.304Z,11.20
2023-02-09T06:28:13.859Z,11.57
2023-02-09T06:30:41.882Z,11.57
2023-02-09T06:33:09.913Z,11.80
2023-02-09T06:35:37.993Z,11.80
2023-02-09T06:38:06.027Z,11.07
2023-02-09T06:40:34.157Z,12.33
2023-02-09T06:43:02.147Z,11.40
2023-02-09T06:45:31.844Z,11.70
2023-02-09T06:47:59.959Z,11.70
2023-02-09T06:50:28.056Z,11.67
2023-02-09T06:52:58.235Z,11.47
2023-02-09T06:55:26.552Z,10.90
2023-02-09T06:57:56.328Z,11.67
2023-02-09T07:00:24.997Z,11.33
2023-02-09T07:02:55.470Z,12.10
2023-02-09T07:05:23.483Z,12.17
2023-02-09T07:07:51.597Z,12.10
2023-02-09T07:10:20.380Z,11.87
2023-02-09T07:12:48.356Z,12.80
2023-02-09T07:15:16.622Z,11.47
2023-02-09T07:17:44.614Z,11.73
2023-02-09T07:20:14.600Z,11.63
2023-02-09T07:22:42.535Z,12.27
2023-02-09T07:25:10.697Z,12.10
2023-02-09T07:27:38.706Z,11.77
2023-02-09T07:30:07.364Z,11.73
2023-02-09T07:32:35.411Z,12.13
2023-02-09T07:35:03.272Z,11.30
2023-02-09T07:37:33.048Z,12.10
2023-02-09T07:40:01.336Z,12.07
2023-02-09T07:42:29.308Z,11.20
2023-02-09T07:45:01.335Z,11.93
2023-02-09T07:47:29.222Z,12.53
2023-02-09T07:49:57.138Z,12.00
2023-02-09T07:52:25.144Z,11.37
2023-02-09T07:54:54.660Z,11.40
2023-02-09T07:57:22.545Z,12.07
2023-02-09T07:59:50.560Z,12.33
2023-02-09T08:02:27.616Z,11.90
2023-02-09T08:04:59.432Z,12.57
2023-02-09T08:07:27.885Z,11.40
2023-02-09T08:09:57.560Z,11.90
2023-02-09T08:12:43.111Z,12.13
2023-02-09T08:15:11.739Z,12.67
2023-02-09T08:17:40.009Z,11.80
2023-02-09T08:20:12.879Z,12.53
2023-02-09T08:22:43.720Z,12.90
2023-02-09T08:25:15.800Z,12.50
2023-02-09T08:27:45.385Z,11.47
2023-02-09T08:30:16.572Z,12.43
2023-02-09T08:32:44.829Z,12.63
2023-02-09T08:35:13.153Z,12.90
2023-02-09T08:37:41.096Z,13.13
2023-02-09T08:40:09.919Z,12.67
2023-02-09T08:42:39.487Z,13.17
2023-02-09T08:45:08.337Z,13.00
2023-02-09T08:47:36.395Z,12.53
2023-02-09T08:50:04.402Z,13.37
2023-02-09T08:52:32.294Z,13.07
2023-02-09T08:55:00.160Z,12.93
2023-02-09T08:57:42.787Z,12.23
2023-02-09T09:00:15.037Z,12.63
2023-02-09T09:02:43.218Z,12.77
2023-02-09T09:05:11.233Z,12.10
2023-02-09T09:07:39.174Z,13.37
2023-02-09T09:10:09.377Z,13.53
2023-02-09T09:12:38.361Z,13.00
2023-02-09T09:15:07.176Z,13.70
2023-02-09T09:17:36.476Z,13.20
2023-02-09T09:20:04.976Z,13.43
2023-02-09T09:22:32.941Z,12.73
2023-02-09T09:25:00.870Z,12.70
2023-02-09T09:27:29.035Z,13.07
2023-02-09T09:29:57.363Z,12.80
2023-02-09T09:32:25.702Z,12.77
2023-02-09T09:34:57.607Z,12.83
2023-02-09T09:37:26.760Z,13.63
2023-02-09T09:39:54.943Z,12.60
2023-02-09T09:42:26.474Z,13.20
2023-02-09T09:44:55.301Z,12.57
2023-02-09T09:47:30.377Z,12.33
2023-02-09T09:50:00.164Z,12.80
2023-02-09T09:52:31.801Z,13.63
2023-02-09T09:55:01.419Z,12.80
2023-02-09T09:57:32.295Z,13.07
2023-02-09T10:00:04.262Z,13.27
2023-02-09T10:02:34.537Z,13.33
2023-02-09T10:05:17.765Z,12.80
2023-02-09T10:07:51.113Z,13.03
2023-02-09T10:10:24.917Z,12.80
2023-02-09T10:12:56.510Z,12.50
2023-02-09T10:15:30.604Z,11.47
2023-02-09T10:17:59.494Z,12.27
2023-02-09T10:20:44.352Z,12.67
2023-02-09T10:23:23.104Z,11.50
2023-02-09T10:25:56.646Z,12.00
2023-02-09T10:28:27.389Z,11.90
2023-02-09T10:30:59.850Z,12.40
2023-02-09T10:33:29.639Z,11.80
2023-02-09T10:36:06.096Z,11.27
2023-02-09T10:38:34.714Z,11.47
2023-02-09T10:41:03.201Z,11.97
2023-02-09T10:43:33.528Z,13.07
2023-02-09T10:46:03.922Z,11.87
2023-02-09T10:48:41.803Z,11.97
2023-02-09T10:51:15.234Z,11.57
2023-02-09T10:53:59.749Z,12.07
2023-02-09T10:56:30.160Z,12.93
2023-02-09T10:59:03.681Z,11.47
2023-02-09T11:01:34.841Z,12.33
2023-02-09T11:04:05.063Z,11.97
2023-02-09T11:06:44.367Z,12.33
2023-02-09T11:09:16.753Z,11.53
2023-02-09T11:11:46.144Z,11.80
2023-02-09T11:14:17.327Z,12.00
2023-02-09T11:16:55.697Z,12.20
2023-02-09T11:19:40.603Z,12.77
2023-02-09T11:22:15.033Z,13.07
2023-02-09T11:24:58.051Z,12.87
2023-02-09T11:27:39.397Z,13.23
2023-02-09T11:30:25.131Z,13.30
2023-02-09T11:32:56.780Z,12.50
2023-02-09T11:35:27.849Z,13.20
2023-02-09T11:38:01.698Z,13.13
2023-02-09T11:40:34.430Z,12.10
2023-02-09T11:43:16.014Z,13.10
2023-02-09T11:45:46.751Z,12.53
2023-02-09T11:48:23.878Z,12.50
2023-02-09T11:51:02.922Z,12.20
2023-02-09T11:53:40.621Z,12.60
2023-02-09T11:56:11.950Z,13.27
2023-02-09T11:58:45.534Z,12.10
2023-02-09T12:01:21.869Z,12.97
2023-02-09T12:04:00.343Z,15.77
2023-02-09T12:06:31.343Z,12.23
2023-02-09T12:09:10.048Z,12.67
2023-02-09T12:11:47.337Z,13.57
2023-02-09T12:14:24.916Z,13.83
2023-02-09T12:16:59.258Z,14.90
2023-02-09T12:19:35.578Z,14.17
2023-02-09T12:22:41.153Z,15.70
2023-02-09T12:25:22.849Z,13.23
2023-02-09T12:28:42.406Z,13.13
2023-02-09T12:31:14.594Z,13.07
2023-02-09T12:34:18.294Z,12.43
2023-02-09T12:37:28.119Z,13.27
2023-02-09T12:40:15.128Z,12.77
2023-02-09T12:42:46.169Z,12.57
2023-02-09T12:45:35.139Z,11.73
2023-02-09T12:48:14.325Z,12.47
2023-02-09T12:50:54.611Z,13.47
2023-02-09T12:53:48.100Z,11.57
2023-02-09T12:56:31.872Z,11.80
2023-02-09T12:59:21.948Z,12.77
2023-02-09T13:02:27.669Z,12.40
2023-02-09T13:05:02.535Z,10.93
2023-02-09T13:07:45.985Z,11.57
2023-02-09T13:10:28.885Z,11.63
2023-02-09T13:13:00.948Z,11.57
2023-02-09T13:15:45.318Z,11.33
2023-02-09T13:18:21.382Z,11.40
2023-02-09T13:21:16.538Z,12.13
2023-02-09T13:23:54.768Z,12.00
2023-02-09T13:26:24.436Z,11.70
2023-02-09T13:29:19.424Z,12.00
2023-02-09T13:32:00.202Z,11.70
2023-02-09T13:34:34.759Z,10.80
2023-02-09T13:37:16.403Z,10.97
2023-02-09T13:39:44.959Z,11.70
2023-02-09T13:42:18.781Z,11.97
2023-02-09T13:44:48.934Z,11.07
2023-02-09T13:47:18.469Z,11.13
2023-02-09T13:49:57.010Z,11.50
2023-02-09T13:52:26.864Z,11.03
2023-02-09T13:54:55.263Z,11.10
2023-02-09T13:57:32.450Z,11.33
2023-02-09T14:00:09.975Z,11.97
2023-02-09T14:02:51.243Z,11.13
2023-02-09T14:05:29.376Z,10.87
2023-02-09T14:07:58.027Z,11.13
2023-02-09T14:10:27.677Z,12.50
2023-02-09T14:13:01.834Z,11.43
2023-02-09T14:15:55.947Z,11.70
2023-02-09T14:18:42.526Z,10.73
2023-02-09T14:21:17.709Z,11.07
2023-02-09T14:23:47.475Z,10.63
2023-02-09T14:26:25.260Z,10.83
2023-02-09T14:28:55.964Z,13.20
2023-02-09T14:31:26.509Z,15.43
2023-02-09T14:33:57.280Z,15.90
2023-02-09T14:36:30.986Z,12.77
2023-02-09T14:39:11.014Z,12.07
2023-02-09T14:41:39.665Z,10.93
2023-02-09T14:44:20.101Z,11.00
2023-02-09T14:46:50.266Z,10.67
2023-02-09T14:49:20.702Z,11.20
2023-02-09T14:51:50.523Z,11.33
2023-02-09T14:54:24.982Z,10.03
2023-02-09T14:56:54.280Z,10.47
2023-02-09T14:59:23.568Z,10.37
2023-02-09T15:01:53.699Z,10.03
2023-02-09T15:04:23.466Z,10.97
2023-02-09T15:07:01.450Z,10.67
2023-02-09T15:09:34.614Z,10.70
2023-02-09T15:12:05.853Z,10.00
2023-02-09T15:14:39.061Z,10.13
2023-02-09T15:17:15.685Z,10.03
2023-02-09T15:19:45.329Z,9.87
2023-02-09T15:22:15.299Z,10.40
2023-02-09T15:24:44.082Z,10.43
2023-02-09T15:27:18.190Z,10.43
2023-02-09T15:29:46.165Z,10.23
2023-02-09T15:32:16.261Z,10.90
2023-02-09T15:34:46.070Z,10.00
2023-02-09T15:37:21.603Z,10.33
2023-02-09T15:39:50.912Z,9.80
2023-02-09T15:42:37.728Z,9.50
2023-02-09T15:45:35.306Z,9.93
2023-02-09T15:48:03.656Z,10.10
2023-02-09T15:50:37.636Z,10.10
2023-02-09T15:53:08.485Z,10.83
2023-02-09T15:55:37.653Z,10.43
2023-02-09T15:58:12.380Z,11.17
2023-02-09T16:00:40.352Z,10.40
2023-02-09T16:03:14.974Z,11.30
2023-02-09T16:05:45.274Z,11.07
2023-02-09T16:08:20.641Z,10.13
2023-02-09T16:10:49.509Z,10.37
2023-02-09T16:13:19.662Z,10.90
2023-02-09T16:15:48.416Z,11.10
2023-02-09T16:18:16.476Z,11.10
2023-02-09T16:20:49.145Z,10.53
2023-02-09T16:23:21.221Z,10.73
2023-02-09T16:25:51.348Z,11.23
2023-02-09T16:28:20.188Z,10.50
2023-02-09T16:30:51.892Z,10.77
2023-02-09T16:33:20.772Z,11.03
2023-02-09T16:35:54.391Z,11.23
2023-02-09T16:38:23.802Z,11.50
2023-02-09T16:40:51.863Z,11.77
2023-02-09T16:43:20.505Z,12.13
2023-02-09T16:46:02.345Z,12.13
2023-02-09T16:48:34.552Z,12.20
2023-02-09T16:51:04.223Z,12.33
2023-02-09T16:53:36.807Z,11.50
2023-02-09T16:56:10.145Z,12.13
2023-02-09T16:58:39.122Z,11.53
2023-02-09T17:01:13.966Z,13.50
2023-02-09T17:03:44.633Z,12.70
2023-02-09T17:06:18.079Z,12.63
2023-02-09T17:08:46.331Z,12.07
2023-02-09T17:11:18.051Z,11.87
2023-02-09T17:13:46.220Z,12.50
2023-02-09T17:16:19.065Z,13.80
2023-02-09T17:18:48.700Z,12.73
2023-02-09T17:21:22.214Z,11.90
2023-02-09T17:23:50.567Z,11.60
2023-02-09T17:26:19.050Z,13.10
2023-02-09T17:28:47.491Z,13.27
2023-02-09T17:31:20.222Z,13.20
2023-02-09T17:33:52.188Z,14.63
2023-02-09T17:36:27.684Z,14.70
2023-02-09T17:38:57.994Z,13.50
2023-02-09T17:41:32.466Z,13.30
2023-02-09T17:44:20.749Z,13.43
2023-02-09T17:46:52.296Z,12.80
2023-02-09T17:49:20.245Z,12.60
2023-02-09T17:51:51.532Z,12.93
2023-02-09T17:54:21.259Z,12.70
2023-02-09T17:56:49.281Z,12.60
2023-02-09T17:59:19.894Z,12.90
2023-02-09T18:01:50.380Z,12.83
2023-02-09T18:04:21.481Z,12.53
2023-02-09T18:06:51.117Z,13.70
2023-02-09T18:09:19.139Z,14.10
2023-02-09T18:12:00.049Z,13.03
2023-02-09T18:14:29.368Z,14.20
2023-02-09T18:16:58.018Z,13.43
2023-02-09T18:19:27.286Z,14.70
2023-02-09T18:21:59.240Z,14.27
2023-02-09T18:24:29.814Z,14.60
2023-02-09T18:26:59.007Z,14.03
2023-02-09T18:29:29.547Z,13.67
2023-02-09T18:31:58.263Z,13.73
2023-02-09T18:34:27.003Z,13.53
2023-02-09T18:36:56.909Z,13.47
2023-02-09T18:39:25.650Z,13.17
2023-02-09T18:41:55.204Z,13.47
2023-02-09T18:44:28.773Z,13.43
2023-02-09T18:46:57.975Z,14.50
2023-02-09T18:49:26.278Z,13.77
2023-02-09T18:51:54.355Z,13.47
2023-02-09T18:54:24.098Z,13.97
2023-02-09T18:56:53.651Z,14.67
2023-02-09T18:59:21.726Z,14.50
2023-02-09T19:01:50.500Z,13.80
2023-02-09T19:04:18.714Z,14.17
2023-02-09T19:06:46.652Z,14.60
2023-02-09T19:09:14.787Z,15.93
2023-02-09T19:11:44.314Z,15.30
2023-02-09T19:14:29.635Z,14.60
2023-02-09T19:16:57.997Z,15.97
2023-02-09T19:19:26.141Z,15.03
2023-02-09T19:21:54.505Z,16.40
2023-02-09T19:24:22.615Z,16.40
2023-02-09T19:26:52.264Z,16.00
2023-02-09T19:29:20.455Z,16.60
2023-02-09T19:31:48.693Z,15.83
2023-02-09T19:34:16.640Z,17.70
2023-02-09T19:36:44.981Z,16.73
2023-02-09T19:39:13.679Z,17.87
2023-02-09T19:41:44.414Z,17.47
2023-02-09T19:44:14.382Z,18.07
2023-02-09T19:46:43.752Z,17.30
2023-02-09T19:49:12.845Z,19.13
2023-02-09T19:51:41.093Z,19.20
2023-02-09T19:54:09.065Z,19.40
2023-02-09T19:56:37.050Z,19.37
2023-02-09T19:59:05.327Z,19.30
2023-02-09T20:01:34.668Z,19.30
2023-02-09T20:04:02.704Z,18.37
2023-02-09T20:06:31.120Z,19.47
2023-02-09T20:09:00.050Z,19.53
2023-02-09T20:11:29.128Z,19.57
2023-02-09T20:13:57.109Z,19.20
2023-02-09T20:16:27.526Z,19.90
2023-02-09T20:18:57.111Z,19.57
2023-02-09T20:21:25.445Z,20.50
2023-02-09T20:23:55.966Z,18.80
2023-02-09T20:26:29.093Z,19.47
2023-02-09T20:28:58.406Z,19.60
2023-02-09T20:31:28.443Z,19.57
2023-02-09T20:33:58.206Z,20.13
2023-02-09T20:36:26.284Z,19.07
2023-02-09T20:38:54.478Z,20.23
2023-02-09T20:41:34.627Z,19.83
2023-02-09T20:44:21.078Z,20.37
2023-02-09T20:46:58.354Z,19.97
2023-02-09T20:49:31.297Z,19.77
2023-02-09T20:51:59.754Z,21.40
2023-02-09T20:54:27.753Z,21.00
2023-02-09T20:56:55.846Z,21.17
2023-02-09T20:59:25.439Z,20.30
2023-02-09T21:01:53.506Z,20.27
2023-02-09T21:04:21.464Z,21.57
2023-02-09T21:06:50.934Z,20.57
2023-02-09T21:09:26.023Z,22.10
2023-02-09T21:11:54.228Z,20.33
2023-02-09T21:14:32.642Z,21.83
2023-02-09T21:17:08.820Z,20.60
2023-02-09T21:19:36.832Z,22.20
2023-02-09T21:22:06.680Z,20.27
2023-02-09T21:24:34.532Z,20.23
2023-02-09T21:27:02.433Z,22.57
2023-02-09T21:29:30.746Z,20.73
2023-02-09T21:32:02.141Z,22.57
2023-02-09T21:34:30.468Z,23.60
2023-02-09T21:36:58.812Z,24.93
2023-02-09T21:39:28.104Z,25.20
2023-02-09T21:42:13.503Z,23.73
2023-02-09T21:44:41.354Z,24.77
2023-02-09T21:47:10.516Z,24.03
2023-02-09T21:49:38.388Z,24.60
2023-02-09T21:52:06.820Z,23.73
2023-02-09T21:54:36.407Z,24.23
2023-02-09T21:57:04.976Z,23.37
2023-02-09T21:59:32.943Z,22.57
2023-02-09T22:02:00.874Z,23.37
2023-02-09T22:04:28.841Z,23.93
2023-02-09T22:06:56.746Z,23.70
2023-02-09T22:09:25.154Z,22.47
2023-02-09T22:11:54.474Z,22.87
2023-02-09T22:14:22.512Z,22.13
2023-02-09T22:16:50.470Z,23.10
2023-02-09T22:19:18.384Z,23.40
2023-02-09T22:21:46.320Z,24.37
2023-02-09T22:24:16.560Z,22.63
2023-02-09T22:26:45.043Z,23.00
2023-02-09T22:29:16.200Z,23.80
2023-02-09T22:31:44.684Z,23.97
2023-02-09T22:34:12.902Z,24.17
2023-02-09T22:36:40.848Z,24.73
2023-02-09T22:39:09.171Z,26.20
2023-02-09T22:41:37.744Z,25.87
2023-02-09T22:44:09.414Z,24.73
2023-02-09T22:46:40.816Z,25.20
2023-02-09T22:49:10.644Z,26.07
2023-02-09T22:51:38.604Z,25.90
2023-02-09T22:54:07.438Z,26.47
2023-02-09T22:56:35.782Z,25.67
2023-02-09T22:59:04.037Z,26.37
2023-02-09T23:01:32.201Z,26.57
2023-02-09T23:04:01.564Z,26.47
2023-02-09T23:06:30.439Z,26.50
2023-02-09T23:09:00.301Z,26.00
2023-02-09T23:11:29.436Z,26.77
2023-02-09T23:14:08.951Z,26.47
2023-02-09T23:16:38.280Z,26.40
2023-02-09T23:19:10.062Z,26.07
2023-02-09T23:21:40.471Z,26.80
2023-02-09T23:24:09.422Z,27.10
2023-02-09T23:26:37.355Z,27.00
2023-02-09T23:29:07.804Z,26.40
2023-02-09T23:31:36.426Z,26.70
2023-02-09T23:34:05.161Z,27.80
2023-02-09T23:36:35.633Z,26.00
2023-02-09T23:39:06.018Z,27.37
2023-02-09T23:41:34.172Z,27.00
2023-02-09T23:44:02.174Z,27.63
2023-02-09T23:46:30.379Z,27.10
2023-02-09T23:48:58.696Z,28.43
2023-02-09T23:51:28.640Z,27.37
2023-02-09T23:54:00.027Z,28.27
2023-02-09T23:56:29.770Z,26.73
2023-02-09T23:58:57.630Z,27.70
